FIN6D EPKK-EFHK
Flight info
| Callsign | FIN6D |
|---|---|
| Flight time | 1h 37m |
| Altitude | 39000 |
| Route | POBOK DCT KOTEK DCT SUTIK DCT BOKSU DCT INBOV DCT GUNTA DCT SOKVA DCT KEMET Q11 INTOR |
| Aircraft | A319/M-SDE3FGHIRWY/LB1 |
Departure
| Time | 2026-04-25 19:42 |
|---|---|
| Airport | Kraków John Paul II International Airport (EPKK) |
Arrival
| Time | 2026-04-25 21:19 |
|---|---|
| Airport | Helsinki Vantaa Airport (EFHK) |
| Time | Latitude | Longitude | Altitude | Speed | Heading |
|---|---|---|---|---|---|
| 2026-04-25 18:52 | 50.07353 | 19.80242 | 806 ft | 0 kts | 169° |
| 2026-04-25 18:56 | 50.07331 | 19.80207 | 805 ft | 0 kts | 167° |
| 2026-04-25 19:30 | 50.07352 | 19.80199 | 805 ft | 4 kts | 167° |
| 2026-04-25 19:30 | 50.07379 | 19.80189 | 805 ft | 4 kts | 163° |
| 2026-04-25 19:31 | 50.07404 | 19.80174 | 805 ft | 4 kts | 144° |
| 2026-04-25 19:31 | 50.07414 | 19.80150 | 805 ft | 1 kts | 78° |
| 2026-04-25 19:31 | 50.07414 | 19.80149 | 805 ft | 0 kts | 78° |
| 2026-04-25 19:32 | 50.07414 | 19.80151 | 805 ft | 1 kts | 78° |
| 2026-04-25 19:33 | 50.07424 | 19.80209 | 805 ft | 7 kts | 76° |
| 2026-04-25 19:33 | 50.07437 | 19.80304 | 805 ft | 10 kts | 79° |
| 2026-04-25 19:33 | 50.07474 | 19.80379 | 805 ft | 9 kts | 17° |
| 2026-04-25 19:33 | 50.07538 | 19.80412 | 805 ft | 11 kts | 18° |
| 2026-04-25 19:34 | 50.07615 | 19.80415 | 805 ft | 12 kts | 347° |
| 2026-04-25 19:34 | 50.07701 | 19.80383 | 805 ft | 14 kts | 345° |
| 2026-04-25 19:34 | 50.07766 | 19.80360 | 805 ft | 8 kts | 347° |
| 2026-04-25 19:34 | 50.07807 | 19.80345 | 805 ft | 3 kts | 347° |
| 2026-04-25 19:35 | 50.07819 | 19.80341 | 805 ft | 0 kts | 347° |
| 2026-04-25 19:39 | 50.07825 | 19.80339 | 805 ft | 4 kts | 346° |
| 2026-04-25 19:39 | 50.07898 | 19.80311 | 805 ft | 16 kts | 346° |
| 2026-04-25 19:39 | 50.07991 | 19.80277 | 805 ft | 4 kts | 345° |
| 2026-04-25 19:40 | 50.08018 | 19.80260 | 805 ft | 3 kts | 316° |
| 2026-04-25 19:40 | 50.08016 | 19.80245 | 805 ft | 2 kts | 255° |
| 2026-04-25 19:40 | 50.08012 | 19.80218 | 805 ft | 3 kts | 257° |
| 2026-04-25 19:40 | 50.08010 | 19.80204 | 805 ft | 1 kts | 256° |
| 2026-04-25 19:41 | 50.07984 | 19.80036 | 806 ft | 53 kts | 257° |
| 2026-04-25 19:41 | 50.07845 | 19.79018 | 806 ft | 135 kts | 258° |
| 2026-04-25 19:41 | 50.07619 | 19.77310 | 1062 ft | 172 kts | 258° |
| 2026-04-25 19:41 | 50.07533 | 19.76690 | 1320 ft | 173 kts | 256° |
| 2026-04-25 19:42 | 50.07015 | 19.73670 | 2833 ft | 177 kts | 257° |
| 2026-04-25 19:42 | 50.06736 | 19.71737 | 3443 ft | 188 kts | 261° |
| 2026-04-25 19:42 | 50.06504 | 19.69654 | 4056 ft | 204 kts | 267° |
| 2026-04-25 19:42 | 50.06708 | 19.67382 | 4645 ft | 223 kts | 294° |
| 2026-04-25 19:43 | 50.07779 | 19.65545 | 5474 ft | 239 kts | 324° |
| 2026-04-25 19:43 | 50.09434 | 19.64874 | 6447 ft | 258 kts | 353° |
| 2026-04-25 19:43 | 50.11228 | 19.65599 | 7296 ft | 281 kts | 19° |
| 2026-04-25 19:43 | 50.12884 | 19.67372 | 7944 ft | 291 kts | 30° |
| 2026-04-25 19:44 | 50.14502 | 19.69288 | 8784 ft | 295 kts | 27° |
| 2026-04-25 19:44 | 50.16220 | 19.71061 | 9697 ft | 296 kts | 22° |
| 2026-04-25 19:44 | 50.18019 | 19.72652 | 10522 ft | 301 kts | 20° |
| 2026-04-25 19:44 | 50.19901 | 19.74238 | 11159 ft | 315 kts | 20° |
| 2026-04-25 19:45 | 50.21874 | 19.75932 | 11741 ft | 331 kts | 21° |
| 2026-04-25 19:45 | 50.23925 | 19.77757 | 12296 ft | 346 kts | 22° |
| 2026-04-25 19:45 | 50.26035 | 19.79686 | 13023 ft | 353 kts | 23° |
| 2026-04-25 19:45 | 50.28164 | 19.81651 | 13848 ft | 357 kts | 23° |
| 2026-04-25 19:46 | 50.30306 | 19.83626 | 14645 ft | 361 kts | 24° |
| 2026-04-25 19:46 | 50.32366 | 19.85991 | 15416 ft | 371 kts | 32° |
| 2026-04-25 19:46 | 50.34332 | 19.88622 | 16172 ft | 376 kts | 34° |
| 2026-04-25 19:46 | 50.36297 | 19.91400 | 16904 ft | 381 kts | 35° |
| 2026-04-25 19:47 | 50.38265 | 19.94204 | 17599 ft | 384 kts | 35° |
| 2026-04-25 19:47 | 50.40270 | 19.97011 | 18276 ft | 388 kts | 34° |
| 2026-04-25 19:47 | 50.42306 | 19.99808 | 18932 ft | 391 kts | 34° |
| 2026-04-25 19:47 | 50.44367 | 20.02612 | 19564 ft | 395 kts | 33° |
| 2026-04-25 19:48 | 50.46450 | 20.05456 | 20187 ft | 399 kts | 34° |
| 2026-04-25 19:48 | 50.48545 | 20.08341 | 20795 ft | 402 kts | 34° |
| 2026-04-25 19:48 | 50.50644 | 20.11246 | 21382 ft | 406 kts | 34° |
| 2026-04-25 19:48 | 50.52782 | 20.14213 | 21958 ft | 409 kts | 34° |
| 2026-04-25 19:49 | 50.54929 | 20.17190 | 22494 ft | 413 kts | 34° |
| 2026-04-25 19:49 | 50.55660 | 20.18202 | 22662 ft | 415 kts | 34° |
| 2026-04-25 19:49 | 50.59515 | 20.22562 | 23471 ft | 405 kts | 16° |
| 2026-04-25 19:49 | 50.62147 | 20.24087 | 23998 ft | 401 kts | 9° |
| 2026-04-25 19:50 | 50.67543 | 20.26753 | 25000 ft | 407 kts | 10° |
| 2026-04-25 19:50 | 50.70207 | 20.28197 | 25472 ft | 411 kts | 12° |
| 2026-04-25 19:50 | 50.72905 | 20.29774 | 25944 ft | 415 kts | 13° |
| 2026-04-25 19:51 | 50.75607 | 20.31417 | 26392 ft | 419 kts | 13° |
| 2026-04-25 19:51 | 50.78343 | 20.33081 | 26845 ft | 422 kts | 13° |
| 2026-04-25 19:51 | 50.81092 | 20.34716 | 27293 ft | 424 kts | 12° |
| 2026-04-25 19:51 | 50.83872 | 20.36338 | 27739 ft | 426 kts | 12° |
| 2026-04-25 19:52 | 50.86667 | 20.37960 | 28170 ft | 429 kts | 12° |
| 2026-04-25 19:52 | 50.89475 | 20.39602 | 28590 ft | 432 kts | 12° |
| 2026-04-25 19:52 | 50.92303 | 20.41269 | 28995 ft | 436 kts | 12° |
| 2026-04-25 19:52 | 50.95125 | 20.42945 | 29407 ft | 438 kts | 13° |
| 2026-04-25 19:53 | 50.98019 | 20.44666 | 29824 ft | 441 kts | 13° |
| 2026-04-25 19:53 | 51.00905 | 20.46381 | 30237 ft | 444 kts | 13° |
| 2026-04-25 19:53 | 51.02852 | 20.47535 | 30506 ft | 446 kts | 13° |
| 2026-04-25 19:53 | 51.05755 | 20.49256 | 30894 ft | 448 kts | 13° |
| 2026-04-25 19:54 | 51.08707 | 20.51008 | 31263 ft | 452 kts | 13° |
| 2026-04-25 19:54 | 51.11702 | 20.52792 | 31617 ft | 455 kts | 14° |
| 2026-04-25 19:54 | 51.14622 | 20.54540 | 32146 ft | 453 kts | 14° |
| 2026-04-25 19:54 | 51.16614 | 20.55732 | 32487 ft | 453 kts | 14° |
| 2026-04-25 19:55 | 51.20553 | 20.58091 | 33151 ft | 452 kts | 15° |
| 2026-04-25 19:55 | 51.23482 | 20.59844 | 33704 ft | 449 kts | 15° |
| 2026-04-25 19:55 | 51.26405 | 20.61596 | 34176 ft | 448 kts | 15° |
| 2026-04-25 19:55 | 51.29316 | 20.63342 | 34594 ft | 449 kts | 15° |
| 2026-04-25 19:56 | 51.32218 | 20.65086 | 34943 ft | 450 kts | 16° |
| 2026-04-25 19:56 | 51.35108 | 20.66828 | 35449 ft | 447 kts | 16° |
| 2026-04-25 19:56 | 51.38089 | 20.68629 | 35922 ft | 446 kts | 16° |
| 2026-04-25 19:56 | 51.40985 | 20.70378 | 36282 ft | 446 kts | 17° |
| 2026-04-25 19:57 | 51.43903 | 20.72141 | 36588 ft | 448 kts | 17° |
| 2026-04-25 19:57 | 51.46790 | 20.73886 | 36879 ft | 449 kts | 17° |
| 2026-04-25 19:57 | 51.49717 | 20.75660 | 37209 ft | 450 kts | 17° |
| 2026-04-25 19:57 | 51.52671 | 20.77456 | 37585 ft | 448 kts | 18° |
| 2026-04-25 19:58 | 51.55541 | 20.79204 | 38028 ft | 445 kts | 18° |
| 2026-04-25 19:58 | 51.58439 | 20.80970 | 38274 ft | 446 kts | 18° |
| 2026-04-25 19:58 | 51.61347 | 20.82741 | 38521 ft | 447 kts | 18° |
| 2026-04-25 19:58 | 51.64252 | 20.84514 | 38738 ft | 448 kts | 18° |
| 2026-04-25 19:59 | 51.67162 | 20.86294 | 38812 ft | 448 kts | 18° |
| 2026-04-25 19:59 | 51.72966 | 20.89853 | 38789 ft | 443 kts | 18° |
| 2026-04-25 20:00 | 51.78703 | 20.93371 | 38786 ft | 445 kts | 18° |
| 2026-04-25 20:00 | 51.84545 | 20.96970 | 38784 ft | 447 kts | 18° |
| 2026-04-25 20:01 | 51.93205 | 21.02329 | 38777 ft | 444 kts | 18° |
| 2026-04-25 20:01 | 51.98978 | 21.05906 | 38748 ft | 444 kts | 18° |
| 2026-04-25 20:02 | 52.04762 | 21.09503 | 38717 ft | 445 kts | 18° |
| 2026-04-25 20:02 | 52.10552 | 21.13116 | 38726 ft | 446 kts | 18° |
| 2026-04-25 20:03 | 52.16346 | 21.16738 | 38735 ft | 446 kts | 18° |
| 2026-04-25 20:03 | 52.22140 | 21.20372 | 38724 ft | 447 kts | 18° |
| 2026-04-25 20:04 | 52.27914 | 21.24004 | 38731 ft | 448 kts | 18° |
| 2026-04-25 20:04 | 52.33718 | 21.27665 | 38784 ft | 447 kts | 18° |
| 2026-04-25 20:05 | 52.39548 | 21.31356 | 38803 ft | 447 kts | 18° |
| 2026-04-25 20:05 | 52.45358 | 21.35038 | 38788 ft | 447 kts | 18° |
| 2026-04-25 20:06 | 52.51148 | 21.38720 | 38798 ft | 445 kts | 19° |
| 2026-04-25 20:06 | 52.56746 | 21.43043 | 38805 ft | 445 kts | 26° |
| 2026-04-25 20:07 | 52.62167 | 21.47965 | 38764 ft | 445 kts | 26° |
| 2026-04-25 20:07 | 52.67586 | 21.52886 | 38724 ft | 444 kts | 26° |
| 2026-04-25 20:08 | 52.73020 | 21.57727 | 38718 ft | 444 kts | 26° |
| 2026-04-25 20:08 | 52.78452 | 21.62613 | 38714 ft | 445 kts | 26° |
| 2026-04-25 20:09 | 52.83892 | 21.67550 | 38711 ft | 446 kts | 26° |
| 2026-04-25 20:09 | 52.89338 | 21.72480 | 38715 ft | 447 kts | 26° |
| 2026-04-25 20:10 | 52.94798 | 21.77437 | 38711 ft | 449 kts | 26° |
| 2026-04-25 20:10 | 53.00286 | 21.82445 | 38710 ft | 450 kts | 26° |
| 2026-04-25 20:11 | 53.05774 | 21.87467 | 38718 ft | 451 kts | 26° |
| 2026-04-25 20:11 | 53.11273 | 21.92508 | 38764 ft | 451 kts | 26° |
| 2026-04-25 20:12 | 53.16747 | 21.97539 | 38762 ft | 452 kts | 26° |
| 2026-04-25 20:12 | 53.20423 | 22.00931 | 38791 ft | 451 kts | 26° |
| 2026-04-25 20:13 | 53.27736 | 22.07697 | 38784 ft | 451 kts | 26° |
| 2026-04-25 20:13 | 53.33233 | 22.12797 | 38745 ft | 452 kts | 26° |
| 2026-04-25 20:14 | 53.38735 | 22.17917 | 38702 ft | 452 kts | 26° |
| 2026-04-25 20:14 | 53.44233 | 22.23052 | 38664 ft | 454 kts | 27° |
| 2026-04-25 20:15 | 53.49758 | 22.28226 | 38625 ft | 455 kts | 26° |
| 2026-04-25 20:15 | 53.55284 | 22.33414 | 38623 ft | 455 kts | 26° |
| 2026-04-25 20:16 | 53.60782 | 22.38593 | 38634 ft | 455 kts | 27° |
| 2026-04-25 20:16 | 53.66346 | 22.43853 | 38640 ft | 456 kts | 27° |
| 2026-04-25 20:17 | 53.71879 | 22.49095 | 38623 ft | 456 kts | 27° |
| 2026-04-25 20:17 | 53.77407 | 22.54352 | 38606 ft | 457 kts | 27° |
| 2026-04-25 20:18 | 53.82952 | 22.59637 | 38571 ft | 457 kts | 27° |
| 2026-04-25 20:18 | 53.88493 | 22.64935 | 38568 ft | 457 kts | 27° |
| 2026-04-25 20:19 | 53.94030 | 22.70248 | 38545 ft | 458 kts | 27° |
| 2026-04-25 20:19 | 53.99567 | 22.75580 | 38545 ft | 458 kts | 27° |
| 2026-04-25 20:20 | 54.05119 | 22.80940 | 38547 ft | 459 kts | 27° |
| 2026-04-25 20:20 | 54.10641 | 22.86286 | 38553 ft | 459 kts | 27° |
| 2026-04-25 20:21 | 54.16188 | 22.91676 | 38599 ft | 459 kts | 27° |
| 2026-04-25 20:21 | 54.21730 | 22.97075 | 38639 ft | 458 kts | 27° |
| 2026-04-25 20:22 | 54.25436 | 23.00695 | 38621 ft | 459 kts | 27° |
| 2026-04-25 20:22 | 54.33069 | 23.06742 | 38643 ft | 451 kts | 10° |
| 2026-04-25 20:23 | 54.39230 | 23.08601 | 38631 ft | 449 kts | 6° |
| 2026-04-25 20:23 | 54.45402 | 23.10254 | 38590 ft | 449 kts | 7° |
| 2026-04-25 20:24 | 54.51555 | 23.12182 | 38552 ft | 449 kts | 8° |
| 2026-04-25 20:24 | 54.57693 | 23.14114 | 38557 ft | 449 kts | 8° |
| 2026-04-25 20:25 | 54.63858 | 23.15966 | 38554 ft | 449 kts | 8° |
| 2026-04-25 20:25 | 54.69873 | 23.17802 | 38559 ft | 450 kts | 8° |
| 2026-04-25 20:26 | 54.76070 | 23.19726 | 38568 ft | 451 kts | 8° |
| 2026-04-25 20:26 | 54.82250 | 23.21633 | 38616 ft | 450 kts | 8° |
| 2026-04-25 20:27 | 54.88422 | 23.23541 | 38639 ft | 450 kts | 8° |
| 2026-04-25 20:27 | 54.94594 | 23.25463 | 38651 ft | 451 kts | 8° |
| 2026-04-25 20:28 | 55.00770 | 23.27389 | 38648 ft | 451 kts | 8° |
| 2026-04-25 20:28 | 55.06941 | 23.29318 | 38642 ft | 450 kts | 8° |
| 2026-04-25 20:29 | 55.13096 | 23.31248 | 38613 ft | 450 kts | 8° |
| 2026-04-25 20:29 | 55.19259 | 23.33190 | 38570 ft | 450 kts | 8° |
| 2026-04-25 20:30 | 55.25434 | 23.35138 | 38555 ft | 450 kts | 8° |
| 2026-04-25 20:30 | 55.31603 | 23.37094 | 38556 ft | 451 kts | 8° |
| 2026-04-25 20:31 | 55.37794 | 23.39060 | 38553 ft | 452 kts | 8° |
| 2026-04-25 20:31 | 55.43955 | 23.41036 | 38548 ft | 453 kts | 9° |
| 2026-04-25 20:32 | 55.49127 | 23.42891 | 38571 ft | 453 kts | 10° |
| 2026-04-25 20:32 | 55.55312 | 23.45146 | 38618 ft | 453 kts | 10° |
| 2026-04-25 20:33 | 55.61476 | 23.47396 | 38622 ft | 453 kts | 10° |
| 2026-04-25 20:33 | 55.66617 | 23.49269 | 38593 ft | 453 kts | 10° |
| 2026-04-25 20:34 | 55.73798 | 23.51898 | 38549 ft | 454 kts | 10° |
| 2026-04-25 20:34 | 55.79988 | 23.54176 | 38542 ft | 454 kts | 10° |
| 2026-04-25 20:35 | 55.86173 | 23.56459 | 38542 ft | 454 kts | 10° |
| 2026-04-25 20:35 | 55.92405 | 23.58760 | 38549 ft | 454 kts | 10° |
| 2026-04-25 20:36 | 55.98563 | 23.61047 | 38559 ft | 455 kts | 10° |
| 2026-04-25 20:36 | 56.04797 | 23.63373 | 38575 ft | 455 kts | 10° |
| 2026-04-25 20:37 | 56.10936 | 23.65664 | 38584 ft | 455 kts | 10° |
| 2026-04-25 20:37 | 56.17172 | 23.68001 | 38591 ft | 455 kts | 10° |
| 2026-04-25 20:38 | 56.23329 | 23.70319 | 38606 ft | 454 kts | 10° |
| 2026-04-25 20:38 | 56.29552 | 23.72667 | 38590 ft | 455 kts | 10° |
| 2026-04-25 20:39 | 56.35670 | 23.74983 | 38565 ft | 455 kts | 10° |
| 2026-04-25 20:39 | 56.40873 | 23.76836 | 38570 ft | 455 kts | 9° |
| 2026-04-25 20:40 | 56.48141 | 23.79306 | 38580 ft | 454 kts | 9° |
| 2026-04-25 20:40 | 56.54356 | 23.81441 | 38598 ft | 454 kts | 9° |
| 2026-04-25 20:41 | 56.60519 | 23.83573 | 38593 ft | 454 kts | 9° |
| 2026-04-25 20:41 | 56.66730 | 23.85719 | 38593 ft | 453 kts | 9° |
| 2026-04-25 20:42 | 56.72893 | 23.87862 | 38571 ft | 454 kts | 9° |
| 2026-04-25 20:42 | 56.79070 | 23.90202 | 38556 ft | 454 kts | 11° |
| 2026-04-25 20:43 | 56.85237 | 23.92649 | 38540 ft | 454 kts | 11° |
| 2026-04-25 20:43 | 56.91416 | 23.95054 | 38530 ft | 454 kts | 10° |
| 2026-04-25 20:44 | 56.97597 | 23.97450 | 38529 ft | 454 kts | 10° |
| 2026-04-25 20:44 | 57.03763 | 23.99874 | 38538 ft | 454 kts | 11° |
| 2026-04-25 20:45 | 57.09899 | 24.02292 | 38536 ft | 454 kts | 11° |
| 2026-04-25 20:45 | 57.16019 | 24.04703 | 38563 ft | 453 kts | 11° |
| 2026-04-25 20:46 | 57.22178 | 24.07142 | 38594 ft | 452 kts | 11° |
| 2026-04-25 20:46 | 57.28319 | 24.09583 | 38587 ft | 451 kts | 11° |
| 2026-04-25 20:47 | 57.34480 | 24.12039 | 38546 ft | 450 kts | 11° |
| 2026-04-25 20:47 | 57.40574 | 24.14477 | 38506 ft | 450 kts | 11° |
| 2026-04-25 20:48 | 57.46654 | 24.16918 | 38500 ft | 450 kts | 11° |
| 2026-04-25 20:48 | 57.52777 | 24.19382 | 38493 ft | 451 kts | 11° |
| 2026-04-25 20:49 | 57.58931 | 24.21872 | 38493 ft | 452 kts | 11° |
| 2026-04-25 20:49 | 57.65075 | 24.24366 | 38491 ft | 453 kts | 11° |
| 2026-04-25 20:50 | 57.71202 | 24.26858 | 38467 ft | 455 kts | 11° |
| 2026-04-25 20:50 | 57.77441 | 24.29403 | 38496 ft | 455 kts | 11° |
| 2026-04-25 20:51 | 57.83588 | 24.31925 | 38552 ft | 455 kts | 11° |
| 2026-04-25 20:51 | 57.89814 | 24.34486 | 38547 ft | 455 kts | 11° |
| 2026-04-25 20:52 | 57.94865 | 24.36570 | 38537 ft | 455 kts | 11° |
| 2026-04-25 20:52 | 58.02042 | 24.39540 | 38521 ft | 454 kts | 11° |
| 2026-04-25 20:53 | 58.08217 | 24.42108 | 38480 ft | 454 kts | 11° |
| 2026-04-25 20:53 | 58.14391 | 24.44686 | 38440 ft | 454 kts | 11° |
| 2026-04-25 20:54 | 58.20563 | 24.47268 | 37946 ft | 453 kts | 11° |
| 2026-04-25 20:54 | 58.23638 | 24.48561 | 37351 ft | 450 kts | 11° |
| 2026-04-25 20:54 | 58.26684 | 24.49841 | 36755 ft | 448 kts | 11° |
| 2026-04-25 20:55 | 58.29722 | 24.51120 | 36159 ft | 446 kts | 11° |
| 2026-04-25 20:55 | 58.32759 | 24.52401 | 35562 ft | 445 kts | 11° |
| 2026-04-25 20:55 | 58.35657 | 24.53626 | 34990 ft | 444 kts | 10° |
| 2026-04-25 20:55 | 58.38672 | 24.54901 | 34395 ft | 443 kts | 10° |
| 2026-04-25 20:56 | 58.41685 | 24.56180 | 33797 ft | 442 kts | 10° |
| 2026-04-25 20:56 | 58.44676 | 24.57453 | 33200 ft | 439 kts | 9° |
| 2026-04-25 20:56 | 58.47662 | 24.58727 | 32601 ft | 436 kts | 9° |
| 2026-04-25 20:56 | 58.50572 | 24.59968 | 32013 ft | 434 kts | 9° |
| 2026-04-25 20:57 | 58.53508 | 24.61221 | 31416 ft | 431 kts | 9° |
| 2026-04-25 20:57 | 58.56430 | 24.62469 | 30882 ft | 427 kts | 9° |
| 2026-04-25 20:57 | 58.59310 | 24.63705 | 30432 ft | 421 kts | 9° |
| 2026-04-25 20:57 | 58.62140 | 24.64923 | 29985 ft | 415 kts | 8° |
| 2026-04-25 20:58 | 58.64936 | 24.66126 | 29555 ft | 410 kts | 8° |
| 2026-04-25 20:58 | 58.67727 | 24.67291 | 29154 ft | 407 kts | 6° |
| 2026-04-25 20:58 | 58.70512 | 24.68212 | 28760 ft | 404 kts | 5° |
| 2026-04-25 20:58 | 58.73271 | 24.69031 | 28365 ft | 402 kts | 4° |
| 2026-04-25 20:59 | 58.76028 | 24.69815 | 27967 ft | 399 kts | 4° |
| 2026-04-25 20:59 | 58.78777 | 24.70609 | 27568 ft | 396 kts | 4° |
| 2026-04-25 20:59 | 58.81501 | 24.71428 | 27175 ft | 394 kts | 5° |
| 2026-04-25 20:59 | 58.84162 | 24.72248 | 26808 ft | 391 kts | 5° |
| 2026-04-25 21:00 | 58.86836 | 24.73075 | 26436 ft | 389 kts | 5° |
| 2026-04-25 21:00 | 58.87752 | 24.73357 | 26308 ft | 388 kts | 5° |
| 2026-04-25 21:00 | 58.94787 | 24.75504 | 25316 ft | 382 kts | 5° |
| 2026-04-25 21:01 | 58.97402 | 24.76304 | 24943 ft | 379 kts | 5° |
| 2026-04-25 21:01 | 58.99990 | 24.77099 | 24566 ft | 373 kts | 5° |
| 2026-04-25 21:01 | 59.02543 | 24.77885 | 24189 ft | 367 kts | 5° |
| 2026-04-25 21:01 | 59.05045 | 24.78656 | 23814 ft | 362 kts | 5° |
| 2026-04-25 21:02 | 59.07511 | 24.79415 | 23439 ft | 357 kts | 5° |
| 2026-04-25 21:02 | 59.09950 | 24.80165 | 23064 ft | 353 kts | 5° |
| 2026-04-25 21:02 | 59.12362 | 24.80910 | 22692 ft | 350 kts | 5° |
| 2026-04-25 21:02 | 59.14761 | 24.81652 | 22319 ft | 348 kts | 5° |
| 2026-04-25 21:03 | 59.17142 | 24.82390 | 21946 ft | 346 kts | 4° |
| 2026-04-25 21:03 | 59.19520 | 24.83128 | 21572 ft | 344 kts | 4° |
| 2026-04-25 21:03 | 59.21875 | 24.83859 | 21200 ft | 343 kts | 4° |
| 2026-04-25 21:03 | 59.24228 | 24.84591 | 20827 ft | 342 kts | 5° |
| 2026-04-25 21:04 | 59.26577 | 24.85325 | 20454 ft | 342 kts | 5° |
| 2026-04-25 21:04 | 59.28927 | 24.86058 | 20079 ft | 340 kts | 5° |
| 2026-04-25 21:04 | 59.31248 | 24.86783 | 19708 ft | 339 kts | 4° |
| 2026-04-25 21:04 | 59.33583 | 24.87513 | 19332 ft | 338 kts | 5° |
| 2026-04-25 21:05 | 59.35910 | 24.88244 | 18960 ft | 339 kts | 5° |
| 2026-04-25 21:05 | 59.38229 | 24.88971 | 18587 ft | 338 kts | 5° |
| 2026-04-25 21:05 | 59.40547 | 24.89698 | 18213 ft | 337 kts | 5° |
| 2026-04-25 21:05 | 59.42863 | 24.90424 | 17838 ft | 338 kts | 6° |
| 2026-04-25 21:06 | 59.45192 | 24.91158 | 17466 ft | 339 kts | 6° |
| 2026-04-25 21:06 | 59.47520 | 24.91892 | 17093 ft | 339 kts | 6° |
| 2026-04-25 21:06 | 59.49855 | 24.92629 | 16718 ft | 338 kts | 6° |
| 2026-04-25 21:06 | 59.50604 | 24.92867 | 16598 ft | 338 kts | 6° |
| 2026-04-25 21:07 | 59.54483 | 24.94097 | 15973 ft | 336 kts | 6° |
| 2026-04-25 21:07 | 59.56790 | 24.94829 | 15600 ft | 335 kts | 6° |
| 2026-04-25 21:07 | 59.59094 | 24.95563 | 15226 ft | 334 kts | 6° |
| 2026-04-25 21:07 | 59.61353 | 24.96285 | 14858 ft | 333 kts | 6° |
| 2026-04-25 21:08 | 59.63641 | 24.97012 | 14485 ft | 332 kts | 6° |
| 2026-04-25 21:08 | 59.65920 | 24.97736 | 14112 ft | 331 kts | 6° |
| 2026-04-25 21:08 | 59.68192 | 24.98461 | 13738 ft | 330 kts | 6° |
| 2026-04-25 21:08 | 59.70454 | 24.99184 | 13364 ft | 329 kts | 6° |
| 2026-04-25 21:09 | 59.74954 | 25.00628 | 12616 ft | 326 kts | 7° |
| 2026-04-25 21:09 | 59.77193 | 25.01348 | 12241 ft | 324 kts | 7° |
| 2026-04-25 21:09 | 59.79408 | 25.02061 | 11851 ft | 323 kts | 7° |
| 2026-04-25 21:10 | 59.81632 | 25.02777 | 11373 ft | 323 kts | 7° |
| 2026-04-25 21:10 | 59.83859 | 25.03494 | 10875 ft | 324 kts | 7° |
| 2026-04-25 21:10 | 59.86082 | 25.04212 | 10381 ft | 324 kts | 7° |
| 2026-04-25 21:10 | 59.88300 | 25.04930 | 9886 ft | 323 kts | 7° |
| 2026-04-25 21:11 | 59.90522 | 25.05648 | 9387 ft | 322 kts | 7° |
| 2026-04-25 21:11 | 59.92728 | 25.06353 | 8897 ft | 320 kts | 7° |
| 2026-04-25 21:11 | 59.94933 | 25.07052 | 8408 ft | 318 kts | 7° |
| 2026-04-25 21:11 | 59.97090 | 25.07755 | 8040 ft | 312 kts | 8° |
| 2026-04-25 21:12 | 59.99189 | 25.08457 | 7958 ft | 296 kts | 8° |
| 2026-04-25 21:12 | 60.01173 | 25.09121 | 7786 ft | 284 kts | 8° |
| 2026-04-25 21:12 | 60.03109 | 25.09758 | 7433 ft | 280 kts | 7° |
| 2026-04-25 21:12 | 60.03732 | 25.09966 | 7280 ft | 280 kts | 7° |
| 2026-04-25 21:13 | 60.06966 | 25.11005 | 6442 ft | 282 kts | 7° |
| 2026-04-25 21:13 | 60.08901 | 25.11633 | 5943 ft | 281 kts | 7° |
| 2026-04-25 21:13 | 60.10171 | 25.12052 | 5623 ft | 277 kts | 7° |
| 2026-04-25 21:13 | 60.12671 | 25.12880 | 4956 ft | 268 kts | 7° |
| 2026-04-25 21:14 | 60.14462 | 25.13471 | 4453 ft | 249 kts | 7° |
| 2026-04-25 21:14 | 60.16072 | 25.13653 | 3939 ft | 226 kts | 348° |
| 2026-04-25 21:14 | 60.17476 | 25.12596 | 3455 ft | 208 kts | 329° |
| 2026-04-25 21:14 | 60.18686 | 25.11180 | 2967 ft | 195 kts | 328° |
| 2026-04-25 21:15 | 60.19837 | 25.09878 | 2459 ft | 186 kts | 331° |
| 2026-04-25 21:15 | 60.20978 | 25.08719 | 2042 ft | 179 kts | 333° |
| 2026-04-25 21:15 | 60.21712 | 25.08002 | 2016 ft | 166 kts | 333° |
| 2026-04-25 21:15 | 60.22656 | 25.07065 | 1989 ft | 141 kts | 332° |
| 2026-04-25 21:16 | 60.23469 | 25.06229 | 2038 ft | 125 kts | 331° |
| 2026-04-25 21:16 | 60.24216 | 25.05461 | 1953 ft | 117 kts | 332° |
| 2026-04-25 21:16 | 60.24952 | 25.04715 | 1777 ft | 116 kts | 331° |
| 2026-04-25 21:16 | 60.25674 | 25.03975 | 1591 ft | 116 kts | 330° |
| 2026-04-25 21:17 | 60.26377 | 25.03243 | 1433 ft | 114 kts | 330° |
| 2026-04-25 21:17 | 60.27081 | 25.02528 | 1227 ft | 114 kts | 332° |
| 2026-04-25 21:17 | 60.27786 | 25.01798 | 994 ft | 114 kts | 330° |
| 2026-04-25 21:17 | 60.28489 | 25.01061 | 794 ft | 115 kts | 333° |
| 2026-04-25 21:18 | 60.29200 | 25.00330 | 588 ft | 114 kts | 334° |
| 2026-04-25 21:18 | 60.29913 | 24.99642 | 432 ft | 113 kts | 333° |
| 2026-04-25 21:18 | 60.30608 | 24.98924 | 266 ft | 111 kts | 334° |
| 2026-04-25 21:18 | 60.31275 | 24.98251 | 194 ft | 95 kts | 332° |
| 2026-04-25 21:19 | 60.31737 | 24.97773 | 194 ft | 62 kts | 332° |
| 2026-04-25 21:19 | 60.32104 | 24.97395 | 194 ft | 56 kts | 333° |
| 2026-04-25 21:19 | 60.32405 | 24.97085 | 194 ft | 27 kts | 328° |
| 2026-04-25 21:19 | 60.32403 | 24.96992 | 194 ft | 8 kts | 216° |
| 2026-04-25 21:20 | 60.32356 | 24.96896 | 193 ft | 12 kts | 227° |
| 2026-04-25 21:20 | 60.32315 | 24.96808 | 193 ft | 15 kts | 227° |
| 2026-04-25 21:20 | 60.32204 | 24.96559 | 193 ft | 20 kts | 225° |
| 2026-04-25 21:20 | 60.32106 | 24.96345 | 194 ft | 22 kts | 228° |
| 2026-04-25 21:21 | 60.31997 | 24.96107 | 193 ft | 24 kts | 223° |
| 2026-04-25 21:21 | 60.31918 | 24.96043 | 194 ft | 8 kts | 136° |
| 2026-04-25 21:21 | 60.31869 | 24.96135 | 193 ft | 12 kts | 134° |
| 2026-04-25 21:21 | 60.31847 | 24.96281 | 194 ft | 12 kts | 97° |
| 2026-04-25 21:22 | 60.31815 | 24.96364 | 194 ft | 6 kts | 141° |
| 2026-04-25 21:22 | 60.31802 | 24.96387 | 194 ft | 2 kts | 135° |
| 2026-04-25 21:22 | 60.31800 | 24.96391 | 194 ft | 0 kts | 136° |
| 2026-04-25 21:22 | 60.31800 | 24.96392 | 194 ft | 0 kts | 136° |